Time;durP1;ratioP1;P1;durP2;ratioP2;P2;SDS_P1;SDS_P2;PMS_P1;PMS_P2;Temp;Humidity;BMP_temperature;BMP_pressure;BME280_temperature;BME280_humidity;BME280_pressure;Samples;Min_cycle;Max_cycle;Signal;HPM_P1;HPM_P2
2023/11/30 00:02:03;;;;;;;67.32;46.70;;;;;;;1.94;88.69;96984.03;4992481;28;20045;-70
2023/11/30 00:04:28;;;;;;;67.72;46.45;;;;;;;1.86;89.15;96979.03;4985177;28;20482;-71
2023/11/30 00:06:53;;;;;;;65.40;46.30;;;;;;;1.86;89.14;96980.88;4974531;28;20027;-71
2023/11/30 00:09:19;;;;;;;60.90;44.95;;;;;;;1.94;89.32;96993.84;4990963;28;20092;-70
2023/11/30 00:11:44;;;;;;;68.72;47.20;;;;;;;1.96;88.92;96992.59;4990561;28;20480;-71
2023/11/30 00:14:10;;;;;;;66.20;45.58;;;;;;;1.96;89.71;96991.81;4990700;28;20092;-69
2023/11/30 00:16:35;;;;;;;63.58;44.17;;;;;;;1.89;89.50;96986.53;4991363;28;20046;-71
2023/11/30 00:19:00;;;;;;;63.53;43.95;;;;;;;1.91;89.37;96986.34;4976117;28;20045;-71
2023/11/30 00:21:26;;;;;;;61.30;41.80;;;;;;;1.93;90.11;96981.63;5007407;28;20449;-70
2023/11/30 00:23:51;;;;;;;71.07;46.40;;;;;;;1.87;89.75;96977.16;4975403;28;20110;-71
2023/11/30 00:26:17;;;;;;;68.50;45.25;;;;;;;1.91;89.22;96979.16;4987320;28;20022;-70
2023/11/30 00:28:50;;;;;;;60.08;43.17;;;;;;;1.93;89.27;96981.63;4991565;28;20042;-71
2023/11/30 00:31:15;;;;;;;63.13;43.95;;;;;;;1.93;89.80;96989.59;4990533;28;20053;-70
2023/11/30 00:33:40;;;;;;;71.68;48.08;;;;;;;1.98;89.38;96984.44;4974157;28;20457;-70
2023/11/30 00:36:07;;;;;;;71.32;48.83;;;;;;;1.92;89.83;96986.13;4990261;28;20031;-70
2023/11/30 00:38:32;;;;;;;68.45;46.72;;;;;;;1.95;89.50;96979.56;4974197;28;20027;-70
2023/11/30 00:40:58;;;;;;;70.50;49.53;;;;;;;2.05;90.04;96990.50;5008309;28;20383;-70
2023/11/30 00:43:23;;;;;;;71.97;49.88;;;;;;;1.98;89.93;96989.75;4979468;28;20019;-70
2023/11/30 00:45:50;;;;;;;67.82;45.55;;;;;;;2.07;89.90;96991.06;4987977;28;20039;-70
2023/11/30 00:48:15;;;;;;;64.03;44.55;;;;;;;2.05;89.44;96991.28;5000671;28;20037;-70
2023/11/30 00:50:40;;;;;;;72.20;46.00;;;;;;;2.06;89.87;96987.59;4990442;28;20042;-70
2023/11/30 00:53:06;;;;;;;71.32;46.33;;;;;;;2.03;89.18;96977.41;4982540;28;20026;-70
2023/11/30 00:55:31;;;;;;;63.67;43.45;;;;;;;2.09;90.10;96975.72;4977592;28;20514;-70
2023/11/30 00:57:56;;;;;;;73.40;46.35;;;;;;;2.11;89.95;96978.97;4994145;28;20478;-70
2023/11/30 01:00:22;;;;;;;71.80;46.63;;;;;;;2.11;89.35;96978.97;4993860;28;20034;-70
2023/11/30 01:02:47;;;;;;;71.68;46.03;;;;;;;1.98;90.10;96965.84;4972643;28;20045;-70
2023/11/30 01:05:13;;;;;;;83.93;51.30;;;;;;;2.12;89.92;96980.59;4993591;28;20406;-70
2023/11/30 01:07:38;;;;;;;79.65;49.25;;;;;;;2.05;89.61;96969.25;4986271;28;20054;-70
2023/11/30 01:10:05;;;;;;;80.57;48.53;;;;;;;2.13;89.89;96982.22;4994004;28;20061;-71
2023/11/30 01:12:30;;;;;;;69.60;45.88;;;;;;;2.14;89.71;96983.84;4977262;28;20054;-71
2023/11/30 01:14:56;;;;;;;71.25;47.28;;;;;;;2.15;90.32;96985.47;4993522;28;20058;-71
2023/11/30 01:17:22;;;;;;;66.80;45.88;;;;;;;2.18;89.99;96985.03;4973786;28;20022;-71
2023/11/30 01:19:48;;;;;;;81.05;48.60;;;;;;;2.21;89.31;96981.13;5008181;28;20038;-71
2023/11/30 01:22:13;;;;;;;80.43;49.95;;;;;;;2.15;89.45;96980.16;4977399;28;20028;-71
2023/11/30 01:24:39;;;;;;;78.15;48.95;;;;;;;2.10;89.87;96972.06;4993559;28;20482;-70
2023/11/30 01:27:04;;;;;;;76.22;47.63;;;;;;;2.20;89.68;96990.91;4977047;28;20088;-69
2023/11/30 01:29:30;;;;;;;71.75;44.83;;;;;;;2.17;89.37;96972.75;4993703;28;20034;-69
2023/11/30 01:31:55;;;;;;;72.13;45.55;;;;;;;2.19;89.92;96980.53;4977208;28;20034;-70
2023/11/30 01:34:21;;;;;;;66.57;43.90;;;;;;;2.14;90.09;96969.75;4993255;28;20038;-70
2023/11/30 01:36:46;;;;;;;71.18;45.08;;;;;;;2.20;89.68;96969.69;4990119;28;20077;-70
2023/11/30 01:39:14;;;;;;;67.70;44.00;;;;;;;2.26;89.55;96975.97;4977132;28;20516;-70
2023/11/30 01:41:39;;;;;;;76.85;46.42;;;;;;;2.19;90.07;96960.09;4978652;28;20032;-70
2023/11/30 01:44:05;;;;;;;66.85;43.83;;;;;;;2.27;89.26;96978.38;4986697;28;20105;-70
2023/11/30 01:46:31;;;;;;;73.05;43.65;;;;;;;2.29;89.15;96970.22;5008975;28;20445;-70
2023/11/30 01:48:57;;;;;;;68.35;44.13;;;;;;;2.30;89.42;96967.31;4992629;28;20062;-70
2023/11/30 01:51:23;;;;;;;62.30;41.33;;;;;;;2.26;89.23;96952.88;4993169;28;20018;-69
2023/11/30 01:53:48;;;;;;;63.28;41.50;;;;;;;2.31;89.82;96949.53;4993090;28;20036;-71
2023/11/30 01:56:14;;;;;;;58.88;39.72;;;;;;;2.36;88.98;96962.94;4992976;28;20023;-71
2023/11/30 01:58:41;;;;;;;69.93;42.30;;;;;;;2.38;90.07;96948.41;4976688;28;20038;-70
2023/11/30 02:01:07;;;;;;;57.05;38.83;;;;;;;2.37;89.85;96940.69;4976768;28;20073;-69
2023/11/30 02:03:32;;;;;;;68.43;42.97;;;;;;;2.37;89.17;96944.16;4976420;28;20038;-71
2023/11/30 02:05:58;;;;;;;67.55;42.33;;;;;;;2.34;89.22;96947.25;4992399;28;20068;-70
2023/11/30 02:08:23;;;;;;;62.67;39.92;;;;;;;2.26;89.84;96939.59;4989485;28;20457;-71
2023/11/30 02:10:49;;;;;;;64.72;40.75;;;;;;;2.32;89.93;96954.63;4992662;28;20034;-71
2023/11/30 02:13:14;;;;;;;66.75;41.17;;;;;;;2.30;89.94;96951.38;4992701;28;20090;-71
2023/11/30 02:15:40;;;;;;;60.97;38.55;;;;;;;2.32;89.05;96949.31;4993252;28;20061;-72
2023/11/30 02:18:05;;;;;;;65.65;39.88;;;;;;;2.25;89.87;96932.66;4993167;28;20042;-71
2023/11/30 02:20:30;;;;;;;65.78;41.67;;;;;;;2.34;89.52;96947.25;4985825;28;20479;-71
2023/11/30 02:22:56;;;;;;;69.68;41.38;;;;;;;2.31;89.62;96936.28;4992638;28;20042;-71
2023/11/30 02:25:21;;;;;;;61.15;39.63;;;;;;;2.34;89.24;96926.00;4984057;28;20030;-71
2023/11/30 02:27:47;;;;;;;66.15;40.60;;;;;;;2.32;89.00;96928.06;4974391;28;20034;-71
2023/11/30 02:30:13;;;;;;;71.10;42.78;;;;;;;2.34;89.93;96931.31;4976860;28;20026;-71
2023/11/30 02:32:38;;;;;;;73.22;44.58;;;;;;;2.26;89.81;96928.97;4990749;28;20045;-71
2023/11/30 02:35:04;;;;;;;72.55;42.97;;;;;;;2.33;89.40;96929.69;4976560;28;20049;-71
2023/11/30 02:37:30;;;;;;;72.18;43.38;;;;;;;2.28;89.89;96918.94;4990600;28;20042;-71
2023/11/30 02:39:55;;;;;;;73.60;43.88;;;;;;;2.31;89.86;96917.69;4993051;28;20042;-71
2023/11/30 02:42:20;;;;;;;72.05;43.40;;;;;;;2.35;89.17;96927.63;4975759;28;20121;-71
2023/11/30 02:44:46;;;;;;;87.50;46.58;;;;;;;2.35;89.38;96918.84;4997639;28;20048;-70
2023/11/30 02:47:11;;;;;;;66.25;40.70;;;;;;;2.38;89.68;96915.75;4975494;28;20127;-69
2023/11/30 02:49:37;;;;;;;74.35;44.00;;;;;;;2.30;89.05;96903.56;4991789;28;20030;-70
2023/11/30 02:52:02;;;;;;;64.90;40.30;;;;;;;2.29;89.16;96891.31;4975658;28;20533;-70
2023/11/30 02:54:27;;;;;;;72.53;42.55;;;;;;;2.36;89.73;96905.31;4975531;28;20092;-70
2023/11/30 02:56:53;;;;;;;73.43;44.28;;;;;;;2.36;89.50;96897.34;4991223;28;20046;-70
2023/11/30 02:59:18;;;;;;;75.32;44.88;;;;;;;2.33;89.41;96897.00;4975394;28;20455;-70
2023/11/30 03:01:45;;;;;;;72.40;43.00;;;;;;;2.37;89.75;96893.69;4991575;28;20053;-70
2023/11/30 03:04:10;;;;;;;71.18;42.80;;;;;;;2.29;90.01;96874.59;4997358;23;20494;-72
2023/11/30 03:06:36;;;;;;;63.30;40.38;;;;;;;2.21;89.56;96861.63;4971789;28;20030;-72
2023/11/30 03:09:01;;;;;;;76.25;45.05;;;;;;;2.35;90.08;96890.44;4950361;28;20491;-72
2023/11/30 03:11:26;;;;;;;75.70;45.97;;;;;;;2.31;89.26;96886.59;4970279;28;20046;-72
2023/11/30 03:13:52;;;;;;;66.47;42.03;;;;;;;2.29;90.07;96875.38;4947991;28;20502;-72
2023/11/30 03:16:24;;;;;;;68.65;43.53;;;;;;;2.37;89.68;96885.72;4971051;28;20042;-71
2023/11/30 03:18:49;;;;;;;71.57;43.30;;;;;;;2.38;89.40;96882.00;4971953;28;20035;-72
2023/11/30 03:21:19;;;;;;;72.65;45.55;;;;;;;2.28;90.02;96871.13;4971989;28;20406;-72
2023/11/30 03:23:44;;;;;;;67.68;44.28;;;;;;;2.29;90.20;96864.75;4968935;28;20081;-72
2023/11/30 03:26:10;;;;;;;72.88;43.90;;;;;;;2.26;89.51;96875.84;4972051;28;20113;-72
2023/11/30 03:28:36;;;;;;;62.47;41.15;;;;;;;2.37;89.68;96892.84;4972040;28;20409;-71
2023/11/30 03:31:01;;;;;;;61.88;41.00;;;;;;;2.40;89.91;96885.28;4972273;28;20314;-71
2023/11/30 03:33:27;;;;;;;69.60;42.20;;;;;;;2.29;89.44;96880.69;4971944;28;20042;-72
2023/11/30 03:35:52;;;;;;;73.50;44.15;;;;;;;2.34;90.06;96880.84;4939135;28;20031;-72
2023/11/30 03:38:18;;;;;;;71.82;44.75;;;;;;;2.33;89.85;96875.75;4952647;29;20031;-72
2023/11/30 03:40:43;;;;;;;70.07;42.78;;;;;;;2.35;89.93;96877.16;4971414;28;20509;-73
2023/11/30 03:43:09;;;;;;;62.90;40.63;;;;;;;2.27;89.38;96856.22;4955806;28;20182;-72
2023/11/30 03:45:34;;;;;;;67.10;43.47;;;;;;;2.43;89.79;96879.47;4971628;28;20121;-71
2023/11/30 03:48:00;;;;;;;62.60;40.45;;;;;;;2.44;89.38;96873.16;4966672;28;20044;-72
2023/11/30 03:50:25;;;;;;;64.93;41.65;;;;;;;2.41;89.64;96870.94;4943536;28;20027;-72
2023/11/30 03:52:51;;;;;;;55.08;37.42;;;;;;;2.47;89.81;96875.38;4971567;28;20125;-72
2023/11/30 03:55:18;;;;;;;58.03;38.60;;;;;;;2.42;89.59;96875.22;4971349;28;20026;-72
2023/11/30 03:57:43;;;;;;;63.92;40.35;;;;;;;2.40;90.05;96869.34;4955713;28;20121;-72
2023/11/30 04:00:12;;;;;;;57.20;37.90;;;;;;;2.40;90.11;96874.66;4971733;28;20110;-72
2023/11/30 04:02:38;;;;;;;54.42;36.97;;;;;;;2.42;89.26;96875.22;4969088;28;20483;-72
2023/11/30 04:05:05;;;;;;;56.25;38.28;;;;;;;2.48;89.07;96879.63;4955370;28;20038;-71
2023/11/30 04:07:31;;;;;;;49.53;35.08;;;;;;;2.53;88.99;96882.41;4971692;28;20066;-72
2023/11/30 04:09:57;;;;;;;49.25;35.20;;;;;;;2.53;89.12;96887.72;4964094;28;20057;-72
2023/11/30 04:12:23;;;;;;;52.50;36.80;;;;;;;2.56;89.21;96881.97;4963582;28;20035;-72
2023/11/30 04:14:48;;;;;;;57.78;38.13;;;;;;;2.53;89.01;96882.41;4970588;28;20046;-72
2023/11/30 04:17:13;;;;;;;62.05;39.80;;;;;;;2.52;89.65;96896.72;4971117;28;20418;-72
2023/11/30 04:19:39;;;;;;;53.15;37.67;;;;;;;2.52;89.37;96880.78;4971516;28;20050;-72
2023/11/30 04:22:05;;;;;;;57.08;39.35;;;;;;;2.58;89.17;96879.91;4971481;28;20383;-72
2023/11/30 04:24:31;;;;;;;58.03;38.35;;;;;;;2.60;89.52;96883.13;4971401;28;20043;-72
2023/11/30 04:26:57;;;;;;;51.97;37.10;;;;;;;2.61;88.99;96873.31;4971178;28;20041;-72
2023/11/30 04:29:22;;;;;;;65.18;40.65;;;;;;;2.61;88.95;96874.09;4975387;28;20045;-72
2023/11/30 04:31:48;;;;;;;61.53;39.05;;;;;;;2.61;88.98;96868.78;4973607;28;20049;-72
2023/11/30 04:34:14;;;;;;;51.55;36.28;;;;;;;2.43;89.21;96836.97;4959219;28;20482;-72
2023/11/30 04:36:39;;;;;;;50.05;34.63;;;;;;;2.62;88.70;96873.09;4974831;28;20038;-72
2023/11/30 04:39:05;;;;;;;45.90;32.78;;;;;;;2.63;88.77;96871.25;4953063;28;20387;-72
2023/11/30 04:41:31;;;;;;;42.95;32.28;;;;;;;2.66;88.77;96881.44;4972973;28;20094;-72
2023/11/30 04:43:56;;;;;;;52.55;34.58;;;;;;;2.67;88.79;96878.53;4967155;28;20034;-71
2023/11/30 04:46:21;;;;;;;64.50;40.47;;;;;;;2.65;88.54;96880.63;4974746;28;20118;-71
2023/11/30 04:48:47;;;;;;;79.43;44.63;;;;;;;2.64;88.47;96884.28;4974888;28;20123;-71
2023/11/30 04:51:13;;;;;;;50.75;36.10;;;;;;;2.57;88.95;96866.81;4974946;28;20038;-71
2023/11/30 04:53:38;;;;;;;64.88;39.58;;;;;;;2.61;88.54;96879.41;4973847;28;20402;-71
2023/11/30 04:56:04;;;;;;;86.10;45.70;;;;;;;2.58;88.59;96879.91;4974623;28;20038;-72
2023/11/30 04:58:30;;;;;;;103.55;49.03;;;;;;;2.57;89.00;96878.25;4958749;28;20073;-71
2023/11/30 05:00:56;;;;;;;84.85;42.55;;;;;;;2.57;88.62;96877.44;4975088;28;20045;-71
2023/11/30 05:03:21;;;;;;;94.88;48.30;;;;;;;2.37;89.40;96856.50;4974680;28;20027;-71
2023/11/30 05:05:47;;;;;;;102.00;47.95;;;;;;;2.46;88.78;96868.41;4974343;28;20383;-72
2023/11/30 05:08:12;;;;;;;94.43;46.40;;;;;;;2.45;88.55;96858.81;4970866;28;20037;-71
2023/11/30 05:10:37;;;;;;;75.03;43.53;;;;;;;2.46;88.04;96855.13;4974817;28;20034;-71
2023/11/30 05:13:03;;;;;;;59.00;39.22;;;;;;;2.43;88.12;96850.25;4974475;28;20058;-71
2023/11/30 05:15:28;;;;;;;54.95;37.15;;;;;;;2.36;88.43;96833.59;4970352;28;20051;-72
2023/11/30 05:17:54;;;;;;;76.05;44.35;;;;;;;2.47;88.89;96845.31;4948800;28;20094;-73
2023/11/30 05:20:19;;;;;;;66.43;41.70;;;;;;;2.45;88.54;96837.56;4971301;28;20068;-72
2023/11/30 05:22:45;;;;;;;63.15;42.72;;;;;;;2.42;88.31;96827.41;4974260;28;20406;-73
2023/11/30 05:25:10;;;;;;;64.78;43.80;;;;;;;2.42;88.23;96819.44;4966876;28;20038;-73
2023/11/30 05:27:35;;;;;;;63.58;44.38;;;;;;;2.41;88.72;96824.97;4970589;28;20109;-72
2023/11/30 05:30:03;;;;;;;63.95;45.33;;;;;;;2.38;88.47;96820.91;4971703;28;20030;-72
2023/11/30 05:32:28;;;;;;;63.70;44.35;;;;;;;2.31;88.44;96812.22;4968125;28;20033;-72
2023/11/30 05:34:54;;;;;;;66.72;48.20;;;;;;;2.33;88.67;96823.44;4975716;28;20034;-73
2023/11/30 05:37:19;;;;;;;70.10;48.65;;;;;;;2.21;88.72;96804.00;4974597;28;20026;-72
2023/11/30 05:39:45;;;;;;;61.00;45.03;;;;;;;2.29;88.77;96816.94;4958636;28;20064;-72
2023/11/30 05:42:10;;;;;;;70.05;47.08;;;;;;;2.27;88.36;96812.91;4970219;28;20037;-71
2023/11/30 05:44:39;;;;;;;71.43;53.58;;;;;;;2.28;88.00;96815.34;4947053;28;20106;-71
2023/11/30 05:47:05;;;;;;;65.20;47.70;;;;;;;2.18;88.13;96803.63;4973540;28;20371;-72
2023/11/30 05:49:30;;;;;;;72.45;47.88;;;;;;;2.19;88.41;96810.56;4973883;28;20034;-72
2023/11/30 05:51:56;;;;;;;66.97;44.72;;;;;;;2.15;88.42;96814.72;4950537;28;20034;-72
2023/11/30 05:54:21;;;;;;;66.70;45.35;;;;;;;2.13;87.75;96820.25;4973364;28;20453;-72
2023/11/30 05:56:46;;;;;;;66.82;41.97;;;;;;;1.95;88.27;96799.06;4975721;28;20466;-71
2023/11/30 05:59:12;;;;;;;75.55;45.42;;;;;;;2.05;87.75;96825.88;4968383;28;20071;-72
2023/11/30 06:01:37;;;;;;;63.85;41.15;;;;;;;2.05;87.95;96817.91;4954801;28;20027;-72
2023/11/30 06:04:03;;;;;;;63.38;40.95;;;;;;;2.00;87.84;96812.47;4970186;28;20034;-73
2023/11/30 06:06:29;;;;;;;69.45;43.28;;;;;;;1.95;87.64;96814.97;4968970;28;20045;-72
2023/11/30 06:08:54;;;;;;;78.55;45.95;;;;;;;1.93;87.33;96825.00;4972828;28;20069;-72
2023/11/30 06:11:19;;;;;;;136.77;60.13;;;;;;;1.86;87.98;96827.75;4955493;28;20038;-72
2023/11/30 06:13:45;;;;;;;170.63;60.33;;;;;;;1.78;88.47;96827.22;4969794;28;20043;-71
2023/11/30 06:16:11;;;;;;;168.00;65.05;;;;;;;1.73;87.91;96824.44;4967663;28;20030;-72
2023/11/30 06:18:36;;;;;;;350.23;91.03;;;;;;;1.69;88.22;96815.28;4968580;28;20035;-72
2023/11/30 06:21:02;;;;;;;200.55;71.13;;;;;;;1.69;88.49;96820.59;4955107;28;20768;-72
2023/11/30 06:23:27;;;;;;;109.25;56.92;;;;;;;1.77;88.06;96833.59;4969900;28;20487;-72
2023/11/30 06:25:53;;;;;;;84.20;51.60;;;;;;;1.70;87.98;96819.59;4953332;28;20021;-72
2023/11/30 06:28:20;;;;;;;98.22;53.05;;;;;;;1.74;87.68;96828.72;4969293;28;20101;-73
2023/11/30 06:30:47;;;;;;;59.15;40.78;;;;;;;1.64;87.48;96817.81;4964980;28;20514;-72
2023/11/30 06:33:12;;;;;;;70.85;44.90;;;;;;;1.70;88.38;96827.53;4969515;28;20046;-72
2023/11/30 06:35:38;;;;;;;108.63;54.45;;;;;;;1.61;88.39;96810.31;4952915;28;20035;-72
2023/11/30 06:38:03;;;;;;;116.35;56.90;;;;;;;1.57;88.06;96822.38;4970002;28;20031;-72
2023/11/30 06:40:29;;;;;;;121.43;60.25;;;;;;;1.48;87.57;96811.25;4958456;28;20027;-73
2023/11/30 06:42:54;;;;;;;100.13;57.35;;;;;;;1.45;87.43;96802.94;4969902;28;20043;-72
2023/11/30 06:45:20;;;;;;;78.07;48.80;;;;;;;1.48;87.94;96807.78;4933115;28;20027;-73
2023/11/30 06:47:45;;;;;;;73.03;45.28;;;;;;;1.50;87.81;96800.41;4972305;28;20116;-72
2023/11/30 06:50:10;;;;;;;53.80;38.55;;;;;;;1.41;87.75;96786.66;4956299;28;20026;-74
2023/11/30 06:52:36;;;;;;;53.53;37.58;;;;;;;1.38;88.71;96781.78;4964611;28;20038;-74
2023/11/30 06:55:03;;;;;;;50.63;36.97;;;;;;;1.52;88.83;96801.03;4972365;28;20034;-73
2023/11/30 06:57:28;;;;;;;53.47;38.20;;;;;;;1.49;88.45;96799.63;4970305;28;20125;-72
2023/11/30 06:59:54;;;;;;;53.47;37.75;;;;;;;1.52;88.01;96782.47;4934981;28;20106;-72
2023/11/30 07:02:19;;;;;;;49.35;36.85;;;;;;;1.60;88.73;96795.41;4970104;28;20043;-72
2023/11/30 07:04:45;;;;;;;52.90;38.42;;;;;;;1.60;88.42;96800.72;4960541;28;20031;-72
2023/11/30 07:07:10;;;;;;;46.72;35.22;;;;;;;1.58;88.62;96797.47;4971332;28;20027;-73
2023/11/30 07:09:36;;;;;;;46.70;35.35;;;;;;;1.63;88.15;96795.78;4955796;28;20594;-72
2023/11/30 07:12:02;;;;;;;47.17;35.50;;;;;;;1.50;88.20;96779.19;4970347;28;20602;-72
2023/11/30 07:14:28;;;;;;;47.78;34.83;;;;;;;1.62;87.60;96810.06;4969418;28;20414;-73
2023/11/30 07:16:53;;;;;;;53.00;36.90;;;;;;;1.58;88.13;96808.09;4971320;28;20050;-72
2023/11/30 07:19:18;;;;;;;70.35;41.40;;;;;;;1.53;88.33;96811.41;4966837;28;20030;-73
2023/11/30 07:21:44;;;;;;;57.30;38.05;;;;;;;1.51;87.42;96812.66;4933779;28;20406;-72
2023/11/30 07:24:09;;;;;;;53.08;35.92;;;;;;;1.43;88.53;96805.81;4930642;28;20023;-73
2023/11/30 07:26:34;;;;;;;48.78;35.33;;;;;;;1.48;88.66;96813.09;4970718;28;20118;-73
2023/11/30 07:29:00;;;;;;;51.05;34.42;;;;;;;1.39;87.89;96810.75;4968980;28;20033;-74
2023/11/30 07:31:25;;;;;;;51.25;34.60;;;;;;;1.55;88.01;96829.75;4968798;28;20502;-74
2023/11/30 07:33:50;;;;;;;51.10;34.15;;;;;;;1.49;87.73;96825.34;4966826;28;20059;-73
2023/11/30 07:36:16;;;;;;;51.10;33.85;;;;;;;1.44;87.94;96822.53;4954414;28;20376;-73
2023/11/30 07:38:41;;;;;;;51.50;34.72;;;;;;;1.64;87.57;96831.06;4949050;28;20038;-73
2023/11/30 07:41:07;;;;;;;48.00;32.75;;;;;;;1.57;88.45;96817.88;4971438;28;20058;-73
2023/11/30 07:43:32;;;;;;;55.72;36.95;;;;;;;1.65;87.59;96830.06;4961496;28;20055;-74
2023/11/30 07:45:58;;;;;;;52.22;34.67;;;;;;;1.60;87.52;96816.63;4970894;28;20406;-74
2023/11/30 07:48:23;;;;;;;59.28;37.58;;;;;;;1.68;88.22;96829.63;4933945;28;20061;-73
2023/11/30 07:50:50;;;;;;;53.53;35.20;;;;;;;1.66;87.91;96821.03;4971444;28;20126;-74
2023/11/30 07:53:16;;;;;;;56.90;37.00;;;;;;;1.67;87.56;96827.97;4947994;28;20034;-73
2023/11/30 07:55:41;;;;;;;62.67;39.58;;;;;;;1.72;87.62;96831.59;4967264;28;20049;-74
2023/11/30 07:58:07;;;;;;;57.20;38.08;;;;;;;1.69;86.91;96815.28;4971527;28;20026;-73
2023/11/30 08:00:33;;;;;;;57.53;38.70;;;;;;;1.81;86.57;96816.19;4969599;28;20042;-73
2023/11/30 08:02:58;;;;;;;61.40;39.25;;;;;;;1.74;86.96;96799.53;4967894;28;20500;-73
2023/11/30 08:05:24;;;;;;;62.97;40.72;;;;;;;1.90;86.37;96807.69;4955162;28;20042;-73
2023/11/30 08:07:50;;;;;;;61.08;39.63;;;;;;;1.91;86.23;96803.97;4939378;28;20023;-73
2023/11/30 08:10:15;;;;;;;48.55;34.28;;;;;;;2.01;85.99;96816.72;4969947;28;20117;-74
2023/11/30 08:12:41;;;;;;;62.47;37.85;;;;;;;2.08;86.75;96815.59;4953008;28;20049;-73
2023/11/30 08:15:07;;;;;;;58.53;38.50;;;;;;;2.09;85.96;96816.44;4953865;28;20465;-73
2023/11/30 08:17:32;;;;;;;58.83;38.97;;;;;;;2.11;86.02;96793.13;4969147;28;20030;-73
2023/11/30 08:19:57;;;;;;;70.43;46.80;;;;;;;2.20;86.20;96809.53;4967809;28;20125;-73
2023/11/30 08:22:24;;;;;;;57.88;41.97;;;;;;;2.22;85.49;96805.59;4950076;28;20030;-73
2023/11/30 08:24:50;;;;;;;55.08;39.90;;;;;;;2.15;85.88;96794.28;4970273;28;20030;-74
2023/11/30 08:27:15;;;;;;;60.38;41.63;;;;;;;2.07;85.48;96786.63;4953782;28;20498;-74
2023/11/30 08:29:41;;;;;;;51.70;37.25;;;;;;;2.15;86.16;96810.19;4966489;28;20658;-73
2023/11/30 08:32:07;;;;;;;50.88;34.97;;;;;;;2.02;85.29;96789.16;4944205;28;20034;-73
2023/11/30 08:34:32;;;;;;;49.78;35.65;;;;;;;2.15;85.40;96804.91;4969785;28;20113;-74
2023/11/30 08:36:57;;;;;;;46.10;35.35;;;;;;;2.14;85.43;96797.97;4961513;28;20026;-73
2023/11/30 08:39:23;;;;;;;40.90;32.05;;;;;;;2.20;84.92;96806.88;4966455;28;20520;-74
2023/11/30 08:41:49;;;;;;;39.58;31.05;;;;;;;2.35;84.94;96800.13;4970977;28;20035;-74
2023/11/30 08:44:15;;;;;;;40.97;30.15;;;;;;;2.48;84.52;96799.09;4968876;28;20559;-74
2023/11/30 08:46:40;;;;;;;36.92;28.75;;;;;;;2.54;84.75;96799.03;4935782;28;20033;-74
2023/11/30 08:49:06;;;;;;;36.90;29.10;;;;;;;2.69;84.24;96802.03;4971038;28;20050;-74
2023/11/30 08:51:31;;;;;;;34.40;27.42;;;;;;;2.77;84.06;96800.91;4932283;29;20031;-73
2023/11/30 08:53:56;;;;;;;35.35;28.05;;;;;;;2.82;84.70;96795.72;4944730;28;20043;-74
2023/11/30 08:56:22;;;;;;;33.95;27.75;;;;;;;2.80;84.34;96776.53;4941669;28;20099;-73
2023/11/30 08:58:48;;;;;;;41.95;35.28;;;;;;;2.83;83.72;96797.31;4969383;28;20490;-73
2023/11/30 09:01:13;;;;;;;42.20;34.65;;;;;;;2.84;83.78;96803.44;4970542;28;20030;-73
2023/11/30 09:03:38;;;;;;;37.03;31.35;;;;;;;2.82;83.26;96801.03;4955173;28;20066;-73
2023/11/30 09:06:04;;;;;;;36.17;30.98;;;;;;;2.96;82.90;96809.59;4970833;28;20701;-73
2023/11/30 09:08:29;;;;;;;33.83;27.35;;;;;;;2.93;82.57;96805.53;4954796;28;20042;-73
2023/11/30 09:10:55;;;;;;;29.90;25.55;;;;;;;2.84;82.68;96803.44;4979307;28;20046;-73
2023/11/30 09:13:20;;;;;;;32.05;26.02;;;;;;;2.74;82.62;96778.25;4966219;28;20464;-74
2023/11/30 09:15:45;;;;;;;28.30;25.13;;;;;;;2.94;82.18;96806.34;4973644;28;20031;-74
2023/11/30 09:18:11;;;;;;;27.25;24.05;;;;;;;2.99;81.79;96807.25;4958262;28;20038;-74
2023/11/30 09:20:37;;;;;;;26.20;22.67;;;;;;;2.92;81.54;96797.81;4967159;28;20035;-74
2023/11/30 09:23:04;;;;;;;25.05;22.35;;;;;;;2.97;81.96;96804.03;4974580;28;20037;-74
2023/11/30 09:25:29;;;;;;;26.77;22.85;;;;;;;3.02;81.89;96803.34;4942034;28;20026;-73
2023/11/30 09:27:55;;;;;;;24.67;22.08;;;;;;;3.04;80.96;96803.91;4974201;28;20495;-73
2023/11/30 09:30:20;;;;;;;24.65;21.58;;;;;;;3.16;80.81;96802.06;4948173;29;20047;-73
2023/11/30 09:32:45;;;;;;;25.73;23.00;;;;;;;3.18;80.31;96811.44;4971115;28;20483;-73
2023/11/30 09:35:11;;;;;;;23.48;20.98;;;;;;;3.20;80.29;96811.19;4957261;28;20034;-73
2023/11/30 09:37:37;;;;;;;23.58;21.13;;;;;;;3.29;80.01;96797.31;4973963;28;20045;-73
2023/11/30 09:40:05;;;;;;;22.58;20.13;;;;;;;3.34;79.43;96772.66;4975909;28;20101;-74
2023/11/30 09:42:31;;;;;;;22.25;19.85;;;;;;;3.49;79.09;96786.31;4970101;28;20046;-74
2023/11/30 09:44:58;;;;;;;21.67;19.35;;;;;;;3.55;78.80;96785.38;4957597;28;20026;-73
2023/11/30 09:47:23;;;;;;;20.52;18.42;;;;;;;3.50;78.68;96785.28;4973381;28;20128;-73
2023/11/30 09:49:49;;;;;;;21.08;18.95;;;;;;;3.54;78.09;96782.94;4960699;28;20105;-73
2023/11/30 09:52:14;;;;;;;22.15;19.77;;;;;;;3.57;77.90;96783.28;4942250;28;20589;-73
2023/11/30 09:54:40;;;;;;;20.80;18.60;;;;;;;3.44;78.06;96770.25;4973605;28;20023;-73
2023/11/30 09:57:05;;;;;;;19.77;17.70;;;;;;;3.57;77.85;96772.63;4974309;28;20112;-74
2023/11/30 09:59:30;;;;;;;20.75;18.60;;;;;;;3.74;77.49;96768.19;4967380;28;20034;-73
2023/11/30 10:01:59;;;;;;;19.08;16.98;;;;;;;3.89;76.95;96765.03;4955828;28;20069;-73
2023/11/30 10:04:25;;;;;;;19.42;17.35;;;;;;;3.91;76.61;96758.41;4957271;28;20027;-73
2023/11/30 10:06:54;;;;;;;20.70;17.83;;;;;;;3.98;76.85;96769.75;4957142;28;20039;-73
2023/11/30 10:09:19;;;;;;;18.33;16.27;;;;;;;3.84;76.33;96755.09;4968297;28;20035;-73
2023/11/30 10:11:45;;;;;;;16.52;14.80;;;;;;;3.92;75.64;96753.91;4972592;28;20061;-74
2023/11/30 10:14:10;;;;;;;16.70;15.10;;;;;;;4.01;75.71;96742.63;4965889;28;20031;-74
2023/11/30 10:16:36;;;;;;;17.25;15.45;;;;;;;4.00;75.91;96738.34;4935427;28;20042;-73
2023/11/30 10:19:02;;;;;;;17.90;16.08;;;;;;;4.13;75.95;96748.69;4971327;28;20479;-74
2023/11/30 10:21:27;;;;;;;16.20;14.52;;;;;;;4.16;75.57;96731.44;4962586;28;20415;-74
2023/11/30 10:23:53;;;;;;;18.45;16.45;;;;;;;4.11;75.27;96710.84;4956427;28;20030;-74
2023/11/30 10:26:22;;;;;;;19.48;17.48;;;;;;;4.33;75.30;96734.13;4972431;28;20038;-74
2023/11/30 10:28:52;;;;;;;20.50;18.27;;;;;;;4.38;75.16;96715.56;4956831;28;20105;-74
2023/11/30 10:31:19;;;;;;;19.00;17.05;;;;;;;4.47;75.14;96706.09;4971153;28;20045;-74
2023/11/30 10:33:48;;;;;;;22.63;18.95;;;;;;;4.39;75.22;96696.66;4955165;28;20074;-74
2023/11/30 10:36:15;;;;;;;20.15;17.88;;;;;;;4.55;75.35;96698.50;4927157;28;20557;-74
2023/11/30 10:38:41;;;;;;;21.30;19.00;;;;;;;4.60;75.40;96703.09;4956643;28;20034;-74
2023/11/30 10:41:13;;;;;;;21.17;18.65;;;;;;;4.66;75.19;96702.16;4971465;28;20046;-74
2023/11/30 10:43:45;;;;;;;21.08;18.90;;;;;;;4.59;75.20;96691.66;4946252;28;20124;-74
2023/11/30 10:46:13;;;;;;;21.35;18.85;;;;;;;4.62;74.70;96695.69;4957001;28;20066;-74
2023/11/30 10:48:38;;;;;;;21.58;19.33;;;;;;;4.56;75.16;96675.34;4970884;28;20026;-73
2023/11/30 10:51:05;;;;;;;21.67;19.40;;;;;;;4.45;74.90;96678.91;4972788;28;20038;-73
2023/11/30 10:54:20;;;;;;;19.65;17.65;;;;;;;4.50;73.95;96693.13;4927441;28;20482;-74
2023/11/30 10:56:46;;;;;;;20.02;17.92;;;;;;;4.56;74.13;96680.66;4878206;29;20053;-74
2023/11/30 10:59:15;;;;;;;18.02;16.13;;;;;;;4.74;74.35;96688.41;4946229;28;20039;-74
2023/11/30 11:01:45;;;;;;;18.55;15.30;;;;;;;4.69;73.31;96680.34;4940360;28;20045;-73
2023/11/30 11:04:12;;;;;;;17.83;16.00;;;;;;;4.81;73.23;96703.19;4973627;28;20517;-73
2023/11/30 11:06:38;;;;;;;20.42;17.02;;;;;;;4.78;72.97;96689.53;4971950;28;20492;-73
2023/11/30 11:09:07;;;;;;;17.52;15.73;;;;;;;4.66;72.55;96664.81;4972283;28;20039;-73
2023/11/30 11:11:33;;;;;;;16.60;14.95;;;;;;;4.76;73.04;96675.66;4956043;28;20035;-74
2023/11/30 11:13:59;;;;;;;16.10;14.45;;;;;;;4.78;73.03;96673.53;4970833;28;20724;-74
2023/11/30 11:16:35;;;;;;;21.45;19.08;;;;;;;4.79;72.92;96691.13;4971931;28;20027;-73
2023/11/30 11:19:02;;;;;;;;;;;;;;;4.55;73.75;96690.50;4971010;28;20043;-74